McNary Field
KSLE : now visible

Airfield :











YOU CAN JOIN US ON...

 
LOGIN :

Register | Disclaimer

   EN    FR    IT 

 









Legend :    VFR   Marginal VFR   IFR   Intensive IFR   Very Intensive IFR
Visi :
Ceiling :
>= 8 km
>= 3000ft
5 to 8 km
1000 to 3000 ft
1500m to 5 km
500 to 1000 ft
800 to 1500m
200 to 500 ft
< 800m
< 200 ft
Symbols :   Thunderstorms  Fog  Heavy snow  Heavy precipitations  Wind > 20 kt






- Airport Elevation : 214 ft


KSLE - McNary Field

CURRENT METAR :
  • 190756Z 18008KT 10SM -RA BKN050 OVC070 14/11 A2987 RMK AO2 RAB34 SLP114 P0000 T01390106 402000139

EXPIRED METARs :
  • 190656Z 18010KT 10SM FEW085 BKN110 14/11 A2985 RMK AO2 RAE07 SLP107 P0000 T01440111
  • 190556Z 17013KT 10SM -RA BKN080 OVC100 15/12 A2983 RMK AO2 RAB12E23B56 SLP100 P0000 60015 T01500122 10161 20150 50002

TAF KSLE
Valid from the 19 at 06:00 until the 20 at 06:00 UTC


190520Z 1906/2006 18010KT P6SM -SHRA SCT040 BKN080
FM190800 18010KT P6SM -RA BKN020 OVC030
FM191500 20008KT P6SM -SHRA BKN025 OVC040
FM192100 24008KT P6SM VCSH SCT025 BKN050
KZSE FIR / North America



MET'MAP, your aeronautical weather chart ! - Copyright ORBIFLY December 2007 - Disclaimer

ORBIFLY MET'MAP TEAM :

Programming & Development : Alexandra Zaïnal
Concept & original design : Baudouin d'Aumeries
Assistance for programming : Marc-Olivier Méhu
Technical & hardware support : Manuel Goepfert

Contact : metmap@orbifly.com




SOURCES & CREDITS :

   NOAA       Earth
Advisory